| Record Date MM/DD/YYYY | Record Time HH:MM:SS | Record Julian Date NNN day of the year | Air Temperature Max (Degrees Fahrenheit F) | Time Max Air Temperature HH:MM:SS This is the time of max air temp for the prior hour interval listed for record [Time]. | Air Temperature Min (Degrees Fahrenheit F) | Time Min Air Temperature HH:MM:SS This is the time of min air temp for the prior hour interval listed for record [Time]. | Air Temperature Observed (Degrees Fahrenheit F) This is an instantaneous reading at the record [Time]. | Relative Humidity Max (Percent) | Time Max Relative Humidity HH:MM:SS This is the time of max relative humidity for the prior hour interval listed for record [Time]. | Relative Humidity Min (Percent) | Time Min Relative Humidity HH:MM:SS This is the time of min relative humidity for the prior hour interval listed for record [Time]. | Relative Humidity Observed (Percent) This is an instantaneous reading at the record [Time]. | Precipitation (Inches n.nn) rain fall that occurred during the prior hour interval listed for record [Time]. | Wind Speed (Miles Per Hour) Resultant Speed that occurred during the prior hour interval listed for record [Time]. | Wind Direction (Degrees) Resultant Direction that occurred during the prior hour interval listed for record [Time]. | Solar Radiation (Langley's) that occurred during the prior hour interval listed for record [Time]. | Soil Temperature Average at 2 inch depth (Degrees Fahrenheit F) that occurred during the prior hour interval listed for record [Time]. | Soil Temperature Observed at 2 inch depth (Degrees Fahrenheit F) This is an instantaneous reading at the record [Time]. | Soil Temperature Average at 4 inch depth (Degrees Fahrenheit F) that occurred during the prior hour interval listed for record [Time]. | Soil Temperature Observed at 4 inch depth (Degrees Fahrenheit F) This is an instantaneous reading at the record [Time]. |
|---|---|---|---|---|---|---|---|---|---|---|---|---|---|---|---|---|---|---|---|---|
| 08/25/2026 | 0:00:00 | 237 | 74 | 23:02:03 | 73 | 23:56:00 | 73 | 98 | 23:59:03 | 97 | 23:20:05 | 97.5 | 0 | 0.0 | 0 | |||||
| 08/25/2026 | 1:00:00 | 237 | 73 | 0:11:00 | 72 | 0:57:03 | 72 | 98 | 1:00:00 | 97 | 0:23:04 | 97.7 | 0 | 0.0 | 0 | |||||
| 08/25/2026 | 2:00:00 | 237 | 72 | 1:04:04 | 71 | 1:48:04 | 72 | 98 | 1:54:04 | 98 | 1:09:00 | 97.8 | 0 | 0.0 | 0 | |||||
| 08/25/2026 | 3:00:00 | 237 | 72 | 2:16:01 | 71 | 2:52:03 | 72 | 98 | 2:57:02 | 98 | 2:23:01 | 98 | 0 | 0.0 | 0 | |||||
| 08/25/2026 | 4:00:00 | 237 | 72 | 3:00:01 | 71 | 3:57:00 | 71 | 98 | 3:58:02 | 98 | 3:07:03 | 98 | 0 | 0.0 | 0 | |||||
| 08/25/2026 | 5:00:00 | 237 | 72 | 4:47:01 | 71 | 4:22:05 | 72 | 98 | 4:42:04 | 98 | 4:22:05 | 98.1 | 0 | 0.0 | 0 | |||||
| 08/25/2026 | 6:00:00 | 237 | 72 | 5:36:04 | 72 | 5:02:04 | 72 | 98 | 5:17:04 | 98 | 5:02:02 | 98.1 | 0 | 0.0 | 0 | |||||
| 08/25/2026 | 7:00:00 | 237 | 75 | 6:55:04 | 72 | 6:01:01 | 75 | 98 | 6:27:01 | 98 | 6:59:04 | 97.8 | 0 | 0.0 | 0 | |||||
| 08/25/2026 | 8:00:00 | 237 | 77 | 8:00:00 | 75 | 7:06:05 | 77 | 98 | 7:00:03 | 96 | 7:59:03 | 95.8 | 0 | 0.0 | 0 | |||||
| 08/25/2026 | 9:00:00 | 237 | 86 | 8:55:01 | 77 | 8:00:01 | 86 | 96 | 8:01:01 | 75 | 8:56:04 | 77.63 | 0 | 0.0 | 0 | |||||
| 08/25/2026 | 10:00:00 | 237 | 93 | 9:54:05 | 86 | 9:00:01 | 93 | 81 | 9:01:02 | 59 | 10:00:00 | 58.8 | 0 | 0.0 | 0 | |||||
| 08/25/2026 | 11:00:00 | 237 | 94 | 10:48:02 | 92 | 10:29:03 | 92 | 67 | 10:12:00 | 53 | 10:47:00 | 57.88 | 0 | 2.1 | 0 | |||||
| 08/25/2026 | 12:00:00 | 237 | 95 | 11:35:03 | 91 | 11:09:00 | 92 | 65 | 11:09:03 | 55 | 11:00:05 | 60.1 | 0 | 3.2 | 0 | |||||
| 08/25/2026 | 13:00:00 | 237 | 95 | 12:29:05 | 92 | 12:00:01 | 94 | 65 | 12:07:01 | 56 | 12:54:03 | 58.26 | 0 | 3.9 | 0 | |||||
| 08/25/2026 | 14:00:00 | 237 | 96 | 13:47:02 | 94 | 13:00:03 | 95 | 61 | 13:01:01 | 50 | 13:20:05 | 55.29 | 0 | 4.2 | 0 | |||||
| 08/25/2026 | 15:00:00 | 237 | 97 | 14:24:01 | 95 | 14:01:04 | 97 | 62 | 14:13:02 | 52 | 14:22:04 | 56.38 | 0 | 3.0 | 0 | |||||
| 08/25/2026 | 16:00:00 | 237 | 98 | 15:21:03 | 95 | 15:04:01 | 97 | 60 | 15:11:04 | 48 | 15:22:02 | 50.93 | 0 | 3.0 | 0 | |||||
| 08/25/2026 | 17:00:00 | 237 | 98 | 16:19:00 | 94 | 16:53:00 | 94 | 59 | 16:59:01 | 49 | 16:04:03 | 58.76 | 0 | 3.1 | 0 | |||||
| 08/25/2026 | 18:00:00 | 237 | 95 | 17:06:02 | 88 | 18:00:00 | 88 | 77 | 18:00:00 | 54 | 17:23:00 | 77.13 | 0 | 0.5 | 0 | |||||
| 08/25/2026 | 19:00:00 | 237 | 88 | 18:00:01 | 80 | 18:59:05 | 80 | 92 | 19:00:00 | 77 | 18:00:01 | 91.8 | 0 | 0.0 | 0 | |||||
| 08/25/2026 | 20:00:00 | 237 | 80 | 19:00:02 | 78 | 19:59:00 | 78 | 95 | 19:59:05 | 92 | 19:00:01 | 94.9 | 0 | 0.0 | 0 | |||||
| 08/25/2026 | 21:00:00 | 237 | 78 | 20:24:05 | 77 | 20:59:02 | 77 | 96 | 20:58:01 | 95 | 20:00:01 | 95.8 | 0 | 0.0 | 0 | |||||
| 08/25/2026 | 22:00:00 | 237 | 77 | 21:00:03 | 77 | 21:59:04 | 77 | 97 | 21:56:04 | 96 | 21:01:03 | 96.6 | 0 | 0.0 | 0 | |||||
| 08/25/2026 | 23:00:00 | 237 | 77 | 22:00:03 | 76 | 22:58:02 | 76 | 97 | 22:50:04 | 97 | 22:03:04 | 97 | 0 | 0.0 | 0 | |||||
| 08/26/2026 | 0:00:00 | 238 | 76 | 23:33:03 | 76 | 23:59:04 | 76 | 97 | 23:51:03 | 97 | 23:00:01 | 97.2 | 0 | 0.0 | 0 | |||||
| 08/26/2026 | 1:00:00 | 238 | 76 | 0:08:04 | 75 | 0:44:04 | 75 | 98 | 0:55:05 | 97 | 0:26:02 | 97.5 | 0 | 0.0 | 0 | |||||
| 08/26/2026 | 2:00:00 | 238 | 76 | 1:13:01 | 75 | 1:00:01 | 76 | 98 | 1:51:05 | 97 | 1:20:00 | 97.6 | 0 | 0.0 | 0 | |||||
| 08/26/2026 | 3:00:00 | 238 | 76 | 2:07:00 | 75 | 2:45:02 | 76 | 98 | 2:56:01 | 98 | 2:45:02 | 97.7 | 0 | 0.0 | 0 | |||||
| 08/26/2026 | 4:00:00 | 238 | 76 | 3:00:02 | 75 | 3:32:02 | 76 | 98 | 3:59:05 | 98 | 3:09:05 | 97.8 | 0 | 0.0 | 0 | |||||
| 08/26/2026 | 5:00:00 | 238 | 76 | 4:03:02 | 75 | 4:49:04 | 75 | 98 | 4:00:05 | 98 | 4:48:02 | 97.8 | 0 | 0.0 | 0 | |||||
| 08/26/2026 | 6:00:00 | 238 | 76 | 5:19:02 | 75 | 5:41:03 | 75 | 98 | 6:00:00 | 98 | 5:27:02 | 97.8 | 0 | 0.0 | 0 | |||||
| 08/26/2026 | 7:00:00 | 238 | 78 | 6:59:05 | 75 | 6:00:01 | 78 | 98 | 6:01:02 | 97 | 6:56:01 | 97.4 | 0 | 0.0 | 0 | |||||
| 08/26/2026 | 8:00:00 | 238 | 85 | 7:56:00 | 78 | 7:07:01 | 85 | 97 | 7:00:03 | 77 | 7:57:00 | 77.88 | 0 | 0.6 | 0 | |||||
| 08/26/2026 | 9:00:00 | 238 | 88 | 9:00:00 | 85 | 8:08:00 | 88 | 79 | 8:22:05 | 69 | 8:36:02 | 70.52 | 0 | 3.2 | 0 | |||||
| 08/26/2026 | 10:00:00 | 238 | 91 | 9:57:02 | 87 | 9:26:04 | 91 | 75 | 9:31:04 | 65 | 9:55:04 | 67.93 | 0 | 2.4 | 0 | |||||
| 08/26/2026 | 11:00:00 | 238 | 94 | 10:56:02 | 90 | 10:13:03 | 93 | 70 | 10:10:00 | 58 | 10:58:03 | 59.8 | 0 | 2.8 | 0 | |||||
| 08/26/2026 | 12:00:00 | 238 | 97 | 11:55:00 | 93 | 11:00:01 | 96 | 64 | 11:01:00 | 54 | 11:52:05 | 58.82 | 0 | 4.8 | 0 | |||||
| 08/26/2026 | 13:00:00 | 238 | 99 | 12:27:03 | 94 | 12:36:05 | 98 | 61 | 12:37:04 | 49 | 12:19:01 | 55.03 | 0 | 4.0 | 0 | |||||
| 08/26/2026 | 14:00:00 | 238 | 99 | 13:06:00 | 94 | 13:44:02 | 98 | 59 | 13:47:01 | 47 | 13:06:00 | 54.44 | 0 | 4.3 | 0 | |||||
| 08/26/2026 | 15:00:00 | 238 | 99 | 14:14:02 | 90 | 14:59:03 | 90 | 69 | 15:00:00 | 48 | 14:09:05 | 68.99 | 0 | 3.9 | 0 | |||||
| 08/26/2026 | 16:00:00 | 238 | 90 | 15:00:01 | 73 | 15:40:05 | 75 | 98 | 15:57:05 | 69 | 15:06:03 | 97.4 | 1.69 | 1.7 | 0 | |||||
| 08/26/2026 | 17:00:00 | 238 | 78 | 16:51:03 | 75 | 16:00:01 | 77 | 98 | 16:13:04 | 97 | 16:55:01 | 97.1 | 0.01 | 0.1 | 0 | |||||
| 08/26/2026 | 18:00:00 | 238 | 78 | 17:06:01 | 74 | 17:16:04 | 75 | 98 | 17:44:01 | 97 | 17:08:04 | 97.6 | 0 | 0.8 | 0 | |||||
| 08/26/2026 | 19:00:00 | 238 | 75 | 18:00:02 | 74 | 18:59:00 | 74 | 98 | 18:59:03 | 98 | 18:10:00 | 97.8 | 0 | 0.1 | 0 | |||||
| 08/26/2026 | 20:00:00 | 238 | 74 | 19:07:03 | 73 | 19:27:02 | 74 | 98 | 19:42:04 | 98 | 19:01:01 | 98 | 0 | 0.0 | 0 | |||||
| 08/26/2026 | 21:00:00 | 238 | 74 | 20:10:01 | 73 | 20:43:02 | 73 | 98 | 20:55:04 | 98 | 20:00:03 | 98.1 | 0 | 0.7 | 0 | |||||
| 08/26/2026 | 22:00:00 | 238 | 74 | 21:31:02 | 73 | 21:02:03 | 74 | 98 | 21:03:03 | 98 | 21:57:00 | 97.7 | 0 | 0.0 | 0 | |||||
| 08/26/2026 | 23:00:00 | 238 | 74 | 22:08:00 | 73 | 22:51:04 | 74 | 98 | 22:58:03 | 98 | 22:00:01 | 97.9 | 0 | 0.0 | 0 | |||||
| 08/27/2026 | 0:00:00 | 239 | 74 | 23:18:00 | 73 | 23:49:05 | 74 | 98 | 23:56:01 | 98 | 23:01:04 | 97.9 | 0 | 0.0 | 0 | |||||
| 08/27/2026 | 1:00:00 | 239 | 74 | 0:00:01 | 73 | 0:43:04 | 73 | 98 | 0:57:00 | 98 | 0:12:05 | 98.1 | 0 | 0.0 | 0 | |||||
| 08/27/2026 | 2:00:00 | 239 | 73 | 1:00:03 | 73 | 1:16:04 | 73 | 98 | 1:59:00 | 98 | 1:01:03 | 98.2 | 0 | 0.0 | 0 | |||||
| 08/27/2026 | 3:00:00 | 239 | 74 | 2:39:00 | 73 | 2:00:01 | 73 | 98 | 2:08:03 | 98 | 2:00:04 | 98.2 | 0 | 0.0 | 0 | |||||
| 08/27/2026 | 4:00:00 | 239 | 74 | 3:19:05 | 73 | 3:54:00 | 73 | 98 | 3:55:01 | 98 | 3:03:03 | 98.3 | 0 | 0.0 | 0 | |||||
| 08/27/2026 | 5:00:00 | 239 | 73 | 4:00:01 | 72 | 4:57:05 | 73 | 98 | 4:40:03 | 98 | 4:15:00 | 98.4 | 0 | 0.0 | 0 | |||||
| 08/27/2026 | 6:00:00 | 239 | 73 | 5:51:02 | 72 | 5:03:02 | 73 | 98 | 5:57:03 | 98 | 5:40:03 | 98.4 | 0 | 0.0 | 0 | |||||
| 08/27/2026 | 7:00:00 | 239 | 74 | 6:58:01 | 73 | 6:11:02 | 73 | 98 | 6:03:04 | 98 | 6:59:03 | 98.3 | 0 | 0.0 | 0 | |||||
| 08/27/2026 | 8:00:00 | 239 | 75 | 8:00:00 | 73 | 7:06:02 | 75 | 98 | 7:01:01 | 97 | 8:00:00 | 97.4 | 0 | 0.0 | 0 | |||||
| 08/27/2026 | 9:00:00 | 239 | 81 | 8:51:04 | 75 | 8:00:01 | 81 | 97 | 8:01:04 | 85 | 8:54:05 | 87 | 0 | 0.0 | 0 | |||||
| 08/27/2026 | 10:00:00 | 239 | 83 | 9:35:05 | 81 | 9:07:02 | 82 | 89 | 9:09:01 | 81 | 9:55:02 | 84.1 | 0 | 0.0 | 0 | |||||
| 08/27/2026 | 11:00:00 | 239 | 87 | 10:25:05 | 82 | 10:00:02 | 86 | 87 | 10:13:01 | 71 | 10:59:05 | 72.13 | 0 | 0.0 | 0 | |||||
| 08/27/2026 | 12:00:00 | 239 | 89 | 11:56:02 | 86 | 11:11:02 | 88 | 81 | 11:15:04 | 69 | 11:28:03 | 74.08 | 0 | 0.0 | 0 | |||||
| 08/27/2026 | 13:00:00 | 239 | 91 | 12:49:01 | 86 | 12:16:02 | 91 | 80 | 12:19:01 | 65 | 12:57:01 | 67.2 | 0 | 0.0 | 0 | |||||
| 08/27/2026 | 14:00:00 | 239 | 93 | 13:33:03 | 90 | 13:02:03 | 92 | 75 | 13:16:04 | 62 | 13:50:03 | 65.25 | 0 | 0.0 | 0 | |||||
| 08/27/2026 | 15:00:00 | 239 | 93 | 15:00:00 | 88 | 14:16:03 | 93 | 76 | 14:22:02 | 59 | 14:34:02 | 63.83 | 0 | 0.0 | 0 | |||||
| 08/27/2026 | 16:00:00 | 239 | 94 | 15:06:01 | 90 | 15:19:05 | 91 | 71 | 15:35:01 | 57 | 15:09:02 | 66.61 | 0 | 0.0 | 0 | |||||
| 08/27/2026 | 17:00:00 | 239 | 93 | 16:51:03 | 90 | 16:05:02 | 92 | 69 | 16:07:00 | 59 | 16:50:05 | 63.31 | 0 | 0.0 | 0 | |||||
| 08/27/2026 | 18:00:00 | 239 | 93 | 17:12:05 | 86 | 17:59:00 | 86 | 80 | 17:57:03 | 60 | 17:10:04 | 79.44 | 0 | 0.0 | 0 | |||||
| 08/27/2026 | 19:00:00 | 239 | 86 | 18:00:01 | 77 | 18:59:04 | 77 | 94 | 19:00:00 | 79 | 18:00:04 | 94.1 | 0 | 0.0 | 0 | |||||
| 08/27/2026 | 20:00:00 | 239 | 77 | 19:00:02 | 75 | 19:55:04 | 75 | 96 | 19:59:05 | 94 | 19:01:00 | 96.3 | 0 | 0.0 | 0 | |||||
| 08/27/2026 | 21:00:00 | 239 | 75 | 20:01:03 | 74 | 20:36:00 | 75 | 97 | 20:58:02 | 96 | 20:00:01 | 97 | 0 | 0.0 | 0 | |||||
| 08/27/2026 | 22:00:00 | 239 | 75 | 21:04:05 | 74 | 21:58:01 | 74 | 97 | 21:52:03 | 97 | 21:00:01 | 97.3 | 0 | 0.0 | 0 | |||||
| 08/27/2026 | 23:00:00 | 239 | 74 | 22:06:05 | 73 | 22:54:00 | 73 | 98 | 22:59:03 | 97 | 22:11:02 | 97.6 | 0 | 0.0 | 0 | |||||
| 08/28/2026 | 0:00:00 | 240 | 73 | 23:40:00 | 72 | 23:58:02 | 72 | 98 | 23:40:00 | 98 | 23:07:03 | 97.8 | 0 | 0.0 | 0 | |||||
| 08/28/2026 | 1:00:00 | 240 | 73 | 0:09:04 | 72 | 0:58:04 | 72 | 98 | 0:33:02 | 98 | 0:05:00 | 97.9 | 0 | 0.0 | 0 | |||||
| 08/28/2026 | 2:00:00 | 240 | 73 | 1:48:05 | 71 | 1:15:02 | 72 | 98 | 1:38:03 | 98 | 1:10:04 | 98 | 0 | 0.0 | 0 | |||||
| 08/28/2026 | 3:00:00 | 240 | 72 | 2:00:01 | 72 | 2:46:03 | 72 | 98 | 2:54:04 | 98 | 2:12:05 | 98.1 | 0 | 0.0 | 0 | |||||
| 08/28/2026 | 4:00:00 | 240 | 72 | 3:00:01 | 71 | 3:59:00 | 71 | 98 | 3:26:05 | 98 | 3:09:02 | 98.2 | 0 | 0.0 | 0 | |||||
| 08/28/2026 | 5:00:00 | 240 | 73 | 4:56:04 | 71 | 4:00:04 | 72 | 98 | 4:57:01 | 98 | 4:00:04 | 98.2 | 0 | 0.0 | 0 | |||||
| 08/28/2026 | 6:00:00 | 240 | 72 | 5:59:05 | 72 | 5:18:01 | 72 | 98 | 5:22:02 | 98 | 5:01:02 | 98.3 | 0 | 0.0 | 0 | |||||
| 08/28/2026 | 7:00:00 | 240 | 75 | 6:47:02 | 72 | 6:00:01 | 75 | 98 | 6:00:02 | 97 | 6:58:03 | 97.4 | 0 | 0.0 | 0 | |||||
| 08/28/2026 | 8:00:00 | 240 | 78 | 7:58:01 | 75 | 7:00:05 | 78 | 98 | 7:02:05 | 91 | 8:00:00 | 91.2 | 0 | 0.0 | 0 | |||||
| 08/28/2026 | 9:00:00 | 240 | 86 | 9:00:00 | 78 | 8:00:02 | 86 | 92 | 8:02:00 | 71 | 8:59:01 | 73.59 | 0 | 0.0 | 0 | |||||
| 08/28/2026 | 10:00:00 | 240 | 89 | 9:51:02 | 86 | 9:00:01 | 87 | 79 | 9:03:05 | 65 | 9:54:02 | 71.77 | 0 | 0.0 | 0 | |||||
| 08/28/2026 | 11:00:00 | 240 | 92 | 10:45:05 | 87 | 10:01:01 | 91 | 74 | 10:02:02 | 52 | 10:48:04 | 56.53 | 0 | 0.1 | 0 | |||||
| 08/28/2026 | 12:00:00 | 240 | 93 | 11:50:03 | 91 | 11:01:03 | 92 | 61 | 11:08:05 | 46 | 11:57:01 | 51.71 | 0 | 0.8 | 0 | |||||
| 08/28/2026 | 13:00:00 | 240 | 94 | 12:11:05 | 92 | 12:58:02 | 92 | 57 | 12:21:01 | 43 | 12:53:04 | 49.99 | 0 | 1.0 | 0 | |||||
| 08/28/2026 | 14:00:00 | 240 | 93 | 13:58:04 | 91 | 13:33:01 | 93 | 57 | 13:58:03 | 43 | 13:54:01 | 52.57 | 0 | 1.2 | 0 | |||||
| 08/28/2026 | 15:00:00 | 240 | 94 | 14:35:02 | 92 | 14:58:03 | 92 | 55 | 14:03:01 | 37 | 14:40:01 | 41 | 0 | 1.2 | 0 | |||||
| 08/28/2026 | 16:00:00 | 240 | 95 | 15:45:01 | 92 | 15:31:00 | 94 | 50 | 15:41:05 | 37 | 15:58:00 | 43.11 | 0 | 0.3 | 0 | |||||
| 08/28/2026 | 17:00:00 | 240 | 95 | 16:07:01 | 92 | 16:59:05 | 92 | 52 | 16:54:02 | 38 | 16:17:01 | 47 | 0 | 0.1 | 0 | |||||
| 08/28/2026 | 18:00:00 | 240 | 92 | 17:12:01 | 84 | 17:59:04 | 84 | 71 | 18:00:00 | 47 | 17:02:00 | 70.65 | 0 | 0.0 | 0 | |||||
| 08/28/2026 | 19:00:00 | 240 | 84 | 18:00:01 | 73 | 18:58:03 | 73 | 93 | 19:00:00 | 70 | 18:02:04 | 92.6 | 0 | 0.0 | 0 | |||||
| 08/28/2026 | 20:00:00 | 240 | 73 | 19:00:01 | 71 | 19:59:05 | 71 | 95 | 19:41:04 | 93 | 19:00:01 | 94.7 | 0 | 0.0 | 0 | |||||
| 08/28/2026 | 21:00:00 | 240 | 71 | 20:00:01 | 70 | 20:59:02 | 70 | 96 | 20:41:05 | 95 | 20:04:00 | 96 | 0 | 0.0 | 0 | |||||
| 08/28/2026 | 22:00:00 | 240 | 70 | 21:18:05 | 69 | 22:00:00 | 69 | 97 | 21:48:01 | 96 | 21:01:04 | 96.9 | 0 | 0.0 | 0 | |||||
| 08/28/2026 | 23:00:00 | 240 | 69 | 22:00:02 | 68 | 22:51:03 | 68 | 97 | 22:59:00 | 97 | 22:01:00 | 97.4 | 0 | 0.0 | 0 | |||||
| 08/29/2026 | 0:00:00 | 241 | 68 | 23:01:00 | 67 | 23:50:03 | 67 | 98 | 23:56:02 | 97 | 23:10:02 | 97.6 | 0 | 0.0 | 0 | |||||
| 08/29/2026 | 1:00:00 | 241 | 67 | 0:00:01 | 67 | 0:59:04 | 67 | 98 | 0:43:04 | 98 | 0:05:00 | 97.8 | 0 | 0.0 | 0 | |||||
| 08/29/2026 | 2:00:00 | 241 | 67 | 1:09:04 | 66 | 1:59:04 | 66 | 98 | 1:53:05 | 98 | 1:01:00 | 97.9 | 0 | 0.0 | 0 | |||||
| 08/29/2026 | 3:00:00 | 241 | 66 | 2:31:00 | 66 | 2:59:02 | 66 | 98 | 2:51:04 | 98 | 2:00:04 | 98 | 0 | 0.0 | 0 | |||||
| 08/29/2026 | 4:00:00 | 241 | 66 | 3:59:05 | 65 | 3:20:00 | 66 | 98 | 3:28:01 | 98 | 3:02:05 | 98.1 | 0 | 0.0 | 0 | |||||
| 08/29/2026 | 5:00:00 | 241 | 66 | 4:14:05 | 65 | 4:50:05 | 65 | 98 | 4:58:01 | 98 | 4:28:00 | 98.2 | 0 | 0.0 | 0 | |||||
| 08/29/2026 | 6:00:00 | 241 | 65 | 5:59:05 | 64 | 5:22:02 | 65 | 98 | 5:48:00 | 98 | 5:17:05 | 98.3 | 0 | 0.0 | 0 | |||||
| 08/29/2026 | 7:00:00 | 241 | 69 | 6:59:03 | 65 | 6:00:01 | 69 | 98 | 6:27:05 | 98 | 7:00:00 | 98.1 | 0 | 0.0 | 0 | |||||
| 08/29/2026 | 8:00:00 | 241 | 75 | 8:00:00 | 69 | 7:00:01 | 75 | 98 | 7:00:01 | 91 | 8:00:00 | 91.4 | 0 | 0.0 | 0 | |||||
| 08/29/2026 | 9:00:00 | 241 | 84 | 8:59:05 | 74 | 8:00:01 | 84 | 91 | 8:03:05 | 69 | 8:57:04 | 69.67 | 0 | 0.1 | 0 | |||||
| 08/29/2026 | 10:00:00 | 241 | 88 | 9:59:02 | 84 | 9:00:01 | 88 | 72 | 9:26:00 | 61 | 10:00:00 | 61.13 | 0 | 0.1 | 0 | |||||
| 08/29/2026 | 11:00:00 | 241 | 92 | 10:43:04 | 88 | 10:02:04 | 92 | 65 | 10:15:00 | 46 | 10:57:02 | 50.39 | 0 | 0.8 | 0 | |||||
| 08/29/2026 | 12:00:00 | 241 | 95 | 11:50:04 | 92 | 11:04:04 | 95 | 57 | 11:19:05 | 42 | 11:38:01 | 50.74 | 0 | 0.7 | 0 | |||||
| 08/29/2026 | 13:00:00 | 241 | 97 | 12:52:03 | 94 | 12:03:05 | 95 | 54 | 12:04:02 | 38 | 12:37:03 | 41.62 | 0 | 0.6 | 0 | |||||
| 08/29/2026 | 14:00:00 | 241 | 99 | 13:59:04 | 95 | 13:01:02 | 99 | 54 | 13:36:05 | 38 | 13:31:03 | 38.32 | 0 | 0.0 | 0 | |||||
| 08/29/2026 | 15:00:00 | 241 | 99 | 14:01:02 | 96 | 14:57:04 | 97 | 51 | 14:07:05 | 38 | 14:37:05 | 44.63 | 0 | 0.3 | 0 | |||||
| 08/29/2026 | 16:00:00 | 241 | 97 | 15:38:01 | 95 | 15:16:04 | 96 | 53 | 15:53:04 | 41 | 15:19:03 | 44.81 | 0 | 2.0 | 0 | |||||
| 08/29/2026 | 17:00:00 | 241 | 98 | 16:24:00 | 95 | 16:49:04 | 95 | 57 | 16:54:01 | 42 | 16:00:05 | 55.48 | 0 | 0.1 | 0 | |||||
| 08/29/2026 | 18:00:00 | 241 | 95 | 17:00:01 | 86 | 17:58:02 | 87 | 72 | 18:00:00 | 55 | 17:02:04 | 71.77 | 0 | 0.0 | 0 | |||||
| 08/29/2026 | 19:00:00 | 241 | 87 | 18:01:04 | 76 | 19:00:00 | 76 | 91 | 18:59:05 | 71 | 18:00:03 | 90.8 | 0 | 0.0 | 0 | |||||
| 08/29/2026 | 20:00:00 | 241 | 76 | 19:00:01 | 75 | 19:59:03 | 75 | 95 | 19:44:00 | 91 | 19:02:01 | 95 | 0 | 0.0 | 0 | |||||
| 08/29/2026 | 21:00:00 | 241 | 75 | 20:11:05 | 74 | 20:59:00 | 74 | 96 | 20:47:04 | 95 | 20:00:02 | 96.1 | 0 | 0.0 | 0 | |||||
| 08/29/2026 | 22:00:00 | 241 | 74 | 21:00:01 | 73 | 21:49:03 | 73 | 97 | 21:51:04 | 96 | 21:00:03 | 96.8 | 0 | 0.0 | 0 | |||||
| 08/29/2026 | 23:00:00 | 241 | 73 | 22:00:01 | 72 | 22:54:01 | 72 | 97 | 22:57:02 | 97 | 22:08:03 | 97.2 | 0 | 0.0 | 0 | |||||
| 08/30/2026 | 0:00:00 | 242 | 72 | 23:00:02 | 72 | 23:52:01 | 72 | 98 | 23:57:00 | 97 | 23:11:04 | 97.5 | 0 | 0.0 | 0 | |||||
| 08/30/2026 | 1:00:00 | 242 | 72 | 0:28:01 | 71 | 0:53:00 | 72 | 98 | 0:58:02 | 97 | 0:02:00 | 97.7 | 0 | 0.0 | 0 | |||||
| 08/30/2026 | 2:00:00 | 242 | 72 | 1:00:01 | 71 | 1:51:04 | 71 | 98 | 1:30:05 | 98 | 1:07:05 | 97.7 | 0 | 0.0 | 0 | |||||
| 08/30/2026 | 3:00:00 | 242 | 71 | 2:15:04 | 71 | 2:03:00 | 71 | 98 | 2:51:01 | 98 | 2:00:01 | 97.9 | 0 | 0.0 | 0 | |||||
| 08/30/2026 | 4:00:00 | 242 | 71 | 3:27:01 | 70 | 4:00:00 | 70 | 98 | 3:53:01 | 98 | 3:01:03 | 98 | 0 | 0.0 | 0 | |||||
| 08/30/2026 | 5:00:00 | 242 | 70 | 4:20:01 | 70 | 4:58:01 | 70 | 98 | 4:59:02 | 98 | 4:01:05 | 98.1 | 0 | 0.0 | 0 | |||||
| 08/30/2026 | 6:00:00 | 242 | 70 | 5:59:00 | 70 | 5:29:05 | 70 | 98 | 5:54:02 | 98 | 5:29:05 | 98.2 | 0 | 0.0 | 0 | |||||
| 08/30/2026 | 7:00:00 | 242 | 74 | 6:59:04 | 70 | 6:00:02 | 74 | 98 | 6:16:05 | 98 | 6:57:04 | 98.1 | 0 | 0.0 | 0 | |||||
| 08/30/2026 | 8:00:00 | 242 | 79 | 8:00:00 | 74 | 7:00:01 | 79 | 98 | 7:01:04 | 93 | 7:59:04 | 93.2 | 0 | 0.2 | 0 | |||||
| 08/30/2026 | 9:00:00 | 242 | 86 | 8:57:05 | 79 | 8:00:01 | 86 | 93 | 8:00:01 | 73 | 8:58:02 | 77.03 | 0 | 1.1 | 0 | |||||
| 08/30/2026 | 10:00:00 | 242 | 91 | 9:54:05 | 86 | 9:00:01 | 90 | 78 | 9:00:01 | 63 | 9:55:04 | 66.06 | 0 | 1.7 | 0 | |||||
| 08/30/2026 | 11:00:00 | 242 | 95 | 10:55:04 | 90 | 10:00:01 | 94 | 71 | 10:04:03 | 55 | 10:58:03 | 60.04 | 0 | 2.2 | 0 | |||||
| 08/30/2026 | 12:00:00 | 242 | 96 | 11:47:03 | 91 | 11:23:04 | 95 | 66 | 11:17:00 | 54 | 11:57:04 | 55.65 | 0 | 2.0 | 0 | |||||
| 08/30/2026 | 13:00:00 | 242 | 98 | 12:36:02 | 93 | 12:46:04 | 96 | 63 | 12:46:05 | 49 | 12:28:02 | 52.67 | 0 | 2.1 | 0 | |||||
| 08/30/2026 | 14:00:00 | 242 | 98 | 13:37:03 | 91 | 13:49:00 | 96 | 66 | 13:50:00 | 49 | 13:11:03 | 56.37 | 0 | 0.6 | 0 | |||||
| 08/30/2026 | 15:00:00 | 242 | 98 | 14:29:02 | 91 | 15:00:00 | 91 | 63 | 15:00:00 | 46 | 14:29:03 | 63.16 | 0 | 1.2 | 0 | |||||
| 08/30/2026 | 16:00:00 | 242 | 99 | 15:43:02 | 91 | 15:01:00 | 97 | 66 | 15:03:00 | 46 | 15:47:01 | 50.94 | 0 | 1.1 | 0 | |||||
| 08/30/2026 | 17:00:00 | 242 | 97 | 16:00:02 | 94 | 16:54:04 | 94 | 59 | 16:42:02 | 47 | 16:03:03 | 55.95 | 0 | 0.8 | 0 | |||||
| 08/30/2026 | 18:00:00 | 242 | 94 | 17:12:02 | 88 | 17:59:05 | 88 | 73 | 17:59:01 | 53 | 17:05:03 | 72.63 | 0 | 0.4 | 0 | |||||
| 08/30/2026 | 19:00:00 | 242 | 88 | 18:01:01 | 78 | 18:59:05 | 78 | 91 | 19:00:00 | 72 | 18:01:04 | 90.5 | 0 | 0.0 | 0 | |||||
| 08/30/2026 | 20:00:00 | 242 | 78 | 19:00:01 | 75 | 19:59:04 | 75 | 95 | 19:58:04 | 91 | 19:00:01 | 95 | 0 | 0.0 | 0 | |||||
| 08/30/2026 | 21:00:00 | 242 | 75 | 20:00:01 | 74 | 21:00:00 | 74 | 96 | 20:53:03 | 95 | 20:00:03 | 96.3 | 0 | 0.0 | 0 | |||||
| 08/30/2026 | 22:00:00 | 242 | 74 | 21:04:00 | 73 | 21:56:04 | 73 | 97 | 21:39:00 | 96 | 21:00:03 | 97 | 0 | 0.0 | 0 | |||||
| 08/30/2026 | 23:00:00 | 242 | 73 | 22:00:01 | 73 | 22:58:01 | 73 | 97 | 22:59:03 | 97 | 22:02:03 | 97.3 | 0 | 0.0 | 0 | |||||
| 08/31/2026 | 0:00:00 | 243 | 73 | 23:01:01 | 72 | 23:55:03 | 72 | 98 | 23:59:03 | 97 | 23:05:03 | 97.6 | 0 | 0.0 | 0 | |||||
| 08/31/2026 | 1:00:00 | 243 | 73 | 0:26:03 | 72 | 0:05:01 | 72 | 98 | 0:43:00 | 98 | 0:01:05 | 97.7 | 0 | 0.0 | 0 | |||||
| 08/31/2026 | 2:00:00 | 243 | 72 | 1:00:03 | 71 | 1:54:03 | 71 | 98 | 1:58:04 | 98 | 1:17:05 | 97.7 | 0 | 0.0 | 0 | |||||
| 08/31/2026 | 3:00:00 | 243 | 71 | 2:00:01 | 71 | 2:25:00 | 71 | 98 | 2:51:05 | 98 | 2:09:02 | 97.9 | 0 | 0.0 | 0 | |||||
| 08/31/2026 | 4:00:00 | 243 | 71 | 3:00:02 | 71 | 3:51:03 | 71 | 98 | 3:57:01 | 98 | 3:05:01 | 98.1 | 0 | 0.0 | 0 | |||||
| 08/31/2026 | 5:00:00 | 243 | 71 | 4:42:03 | 70 | 4:59:02 | 70 | 98 | 4:42:00 | 98 | 4:03:05 | 98 | 0 | 0.0 | 0 | |||||
| 08/31/2026 | 6:00:00 | 243 | 70 | 6:00:00 | 70 | 5:36:00 | 70 | 98 | 5:49:01 | 98 | 5:00:04 | 98.2 | 0 | 0.0 | 0 | |||||
| 08/31/2026 | 7:00:00 | 243 | 74 | 6:59:04 | 70 | 6:00:01 | 74 | 98 | 6:04:02 | 98 | 6:59:02 | 98 | 0 | 0.0 | 0 | |||||
| 08/31/2026 | 8:00:00 | 243 | 78 | 8:00:00 | 74 | 7:00:01 | 78 | 98 | 7:05:01 | 95 | 8:00:00 | 95.3 | 0 | 0.0 | 0 | |||||
| 08/31/2026 | 9:00:00 | 243 | 88 | 8:58:02 | 78 | 8:00:01 | 88 | 95 | 8:00:01 | 70 | 8:59:03 | 72.26 | 0 | 0.3 | 0 | |||||
| 08/31/2026 | 10:00:00 | 243 | 92 | 9:56:05 | 88 | 9:00:01 | 92 | 75 | 9:28:05 | 61 | 9:59:01 | 64.26 | 0 | 0.4 | 0 | |||||
| 08/31/2026 | 11:00:00 | 243 | 98 | 10:53:04 | 92 | 10:00:01 | 93 | 66 | 10:01:01 | 51 | 10:53:05 | 59.74 | 0 | 1.1 | 0 | |||||
| 08/31/2026 | 12:00:00 | 243 | 98 | 11:48:05 | 91 | 11:15:05 | 97 | 68 | 11:14:02 | 51 | 11:52:03 | 55.83 | 0 | 0.5 | 0 | |||||
| 08/31/2026 | 13:00:00 | 243 | 100 | 12:11:01 | 97 | 12:48:02 | 99 | 59 | 12:25:04 | 47 | 12:58:00 | 50 | 0 | 0.1 | 0 | |||||
| 08/31/2026 | 14:00:00 | 243 | 102 | 13:58:05 | 99 | 13:00:02 | 101 | 55 | 13:00:03 | 41 | 13:48:00 | 46.31 | 0 | 0.4 | 0 | |||||
| 08/31/2026 | 15:00:00 | 243 | 101 | 14:00:01 | 94 | 14:15:04 | 97 | 65 | 14:17:01 | 44 | 14:39:02 | 55.22 | 0 | 0.1 | 0 | |||||
| 08/31/2026 | 16:00:00 | 243 | 101 | 15:55:05 | 97 | 15:00:01 | 101 | 56 | 15:00:01 | 42 | 15:56:01 | 49.59 | 0 | 0.7 | 0 | |||||
| 08/31/2026 | 17:00:00 | 243 | 102 | 16:03:02 | 97 | 16:59:05 | 97 | 53 | 16:55:01 | 44 | 16:24:05 | 52.51 | 0 | 0.7 | 0 | |||||
| 08/31/2026 | 18:00:00 | 243 | 97 | 17:00:01 | 89 | 17:56:03 | 90 | 73 | 17:59:00 | 51 | 17:00:03 | 73.39 | 0 | 0.0 | 0 | |||||
| 08/31/2026 | 19:00:00 | 243 | 90 | 18:01:00 | 79 | 18:59:05 | 79 | 91 | 19:00:00 | 72 | 18:02:04 | 91.2 | 0 | 0.0 | 0 | |||||
| 08/31/2026 | 20:00:00 | 243 | 79 | 19:00:01 | 77 | 19:59:03 | 77 | 95 | 19:58:03 | 91 | 19:00:01 | 94.8 | 0 | 0.0 | 0 | |||||
| 08/31/2026 | 21:00:00 | 243 | 77 | 20:00:01 | 76 | 20:59:04 | 76 | 96 | 20:59:00 | 95 | 20:00:05 | 96.1 | 0 | 0.0 | 0 | |||||
| 08/31/2026 | 22:00:00 | 243 | 76 | 21:00:01 | 75 | 21:59:01 | 75 | 97 | 21:57:02 | 96 | 21:00:05 | 96.7 | 0 | 0.0 | 0 | |||||
| 08/31/2026 | 23:00:00 | 243 | 76 | 22:04:04 | 75 | 22:51:00 | 75 | 97 | 22:57:04 | 97 | 22:00:05 | 97.2 | 0 | 0.0 | 0 | |||||
| 09/01/2026 | 0:00:00 | 244 | 75 | 23:00:04 | 74 | 23:48:03 | 74 | 97 | 23:53:04 | 97 | 23:07:00 | 97.4 | 0 | 0.0 | 0 | |||||
| 09/01/2026 | 1:00:00 | 244 | 74 | 0:01:04 | 73 | 0:59:00 | 73 | 98 | 0:38:02 | 97 | 0:08:04 | 97.5 | 0 | 0.0 | 0 | |||||
| Average | 82.31 | 79.22 | 80.74 | 86.05 | 78.72 | 82.43 | 0.01 | 0.47 | 0 | 0 | 0 | 0 | 0 | |||||||
| Total | 1.7 |